createdAt,value
2023-05-06T00:00:52.615Z,208.64
2023-05-06T00:01:52.663Z,210.51
2023-05-06T00:02:52.848Z,212.90
2023-05-06T00:03:52.907Z,213.51
2023-05-06T00:04:53.026Z,214.37
2023-05-06T00:05:52.778Z,211.97
2023-05-06T00:06:52.826Z,212.49
2023-05-06T00:07:52.863Z,212.94
2023-05-06T00:08:52.889Z,212.66
2023-05-06T00:09:52.932Z,216.04
2023-05-06T00:10:52.977Z,216.25
2023-05-06T00:11:53.044Z,213.74
2023-05-06T00:12:53.085Z,213.78
2023-05-06T00:13:53.085Z,216.73
2023-05-06T00:14:53.151Z,214.89
2023-05-06T00:15:53.211Z,216.18
2023-05-06T00:16:53.200Z,217.64
2023-05-06T00:17:53.249Z,217.98
2023-05-06T00:18:53.279Z,217.61
2023-05-06T00:19:53.349Z,216.39
2023-05-06T00:20:53.383Z,217.37
2023-05-06T00:21:53.416Z,218.46
2023-05-06T00:22:53.480Z,215.30
2023-05-06T00:23:53.491Z,219.66
2023-05-06T00:24:53.532Z,220.14
2023-05-06T00:25:53.551Z,217.00
2023-05-06T00:26:53.584Z,218.38
2023-05-06T00:27:53.627Z,216.11
2023-05-06T00:28:53.670Z,217.80
2023-05-06T00:29:53.700Z,215.84
2023-05-06T00:30:53.759Z,216.42
2023-05-06T00:31:53.835Z,216.68
2023-05-06T00:32:53.854Z,216.74
2023-05-06T00:33:53.863Z,216.40
2023-05-06T00:34:53.892Z,217.93
2023-05-06T00:35:53.941Z,218.46
2023-05-06T00:36:53.997Z,216.69
2023-05-06T00:37:54.031Z,216.49
2023-05-06T00:38:54.088Z,216.82
2023-05-06T00:39:54.120Z,219.08
2023-05-06T00:40:54.145Z,218.72
2023-05-06T00:41:54.204Z,217.51
2023-05-06T00:42:54.230Z,217.49
2023-05-06T00:43:54.270Z,216.26
2023-05-06T00:44:54.321Z,219.28
2023-05-06T00:45:54.414Z,215.60
2023-05-06T00:46:54.477Z,217.66
2023-05-06T00:47:54.499Z,217.34
2023-05-06T00:48:54.515Z,220.12
2023-05-06T00:49:54.568Z,218.23
2023-05-06T00:50:54.614Z,218.50
2023-05-06T00:51:54.634Z,218.81
2023-05-06T00:52:54.683Z,222.05
2023-05-06T00:53:54.767Z,221.89
2023-05-06T00:54:54.768Z,221.15
2023-05-06T00:55:54.825Z,220.72
2023-05-06T00:56:54.888Z,224.37
2023-05-06T00:57:54.942Z,223.53
2023-05-06T00:58:54.973Z,225.17
2023-05-06T00:59:55.031Z,226.38
2023-05-06T01:00:55.078Z,225.78
2023-05-06T01:01:55.133Z,223.24
2023-05-06T01:02:55.412Z,224.66
2023-05-06T01:03:55.601Z,227.32
2023-05-06T01:04:55.262Z,227.87
2023-05-06T01:05:55.303Z,225.77
2023-05-06T01:06:55.352Z,225.25
2023-05-06T01:07:55.392Z,223.76
2023-05-06T01:08:55.434Z,224.06
2023-05-06T01:09:55.474Z,221.96
2023-05-06T01:10:55.515Z,220.00
2023-05-06T01:11:55.588Z,221.29
2023-05-06T01:12:55.673Z,219.84
2023-05-06T01:13:55.661Z,219.03
2023-05-06T01:14:55.689Z,219.50
2023-05-06T01:15:55.790Z,221.31
2023-05-06T01:16:55.821Z,217.13
2023-05-06T01:17:55.892Z,218.94
2023-05-06T01:18:55.935Z,217.23
2023-05-06T01:19:55.936Z,212.65
2023-05-06T01:20:55.987Z,214.30
2023-05-06T01:21:56.005Z,214.70
2023-05-06T01:22:56.057Z,212.13
2023-05-06T01:23:56.113Z,212.13
2023-05-06T01:24:56.161Z,212.04
2023-05-06T01:25:56.193Z,213.14
2023-05-06T01:26:56.256Z,210.67
2023-05-06T01:27:56.285Z,210.85
2023-05-06T01:28:56.345Z,210.56
2023-05-06T01:29:56.388Z,213.62
2023-05-06T01:30:56.485Z,212.47
2023-05-06T01:31:56.487Z,213.00
2023-05-06T01:32:56.551Z,212.48
2023-05-06T01:33:56.579Z,211.45
2023-05-06T01:34:56.736Z,209.82
2023-05-06T01:35:56.651Z,209.45
2023-05-06T01:36:56.709Z,206.10
2023-05-06T01:37:56.757Z,204.61
2023-05-06T01:38:56.796Z,203.23
2023-05-06T01:39:56.831Z,204.53
2023-05-06T01:40:56.883Z,207.10
2023-05-06T01:41:56.953Z,205.22
2023-05-06T01:42:57.006Z,206.15
2023-05-06T01:43:57.033Z,204.08
2023-05-06T01:44:57.102Z,205.83
2023-05-06T01:45:57.211Z,205.57
2023-05-06T01:46:57.196Z,201.30
2023-05-06T01:47:57.291Z,204.38
2023-05-06T01:48:57.285Z,204.02
2023-05-06T01:49:57.336Z,205.45
2023-05-06T01:50:57.440Z,209.02
2023-05-06T01:51:57.415Z,205.88
2023-05-06T01:52:57.482Z,205.99
2023-05-06T01:53:57.525Z,207.77
2023-05-06T01:54:57.586Z,207.29
2023-05-06T01:55:57.632Z,205.13
2023-05-06T01:56:57.683Z,205.31
2023-05-06T01:57:57.784Z,205.67
2023-05-06T01:58:59.301Z,202.44
2023-05-06T01:59:57.861Z,201.56
2023-05-06T02:00:57.892Z,200.66
2023-05-06T02:01:57.974Z,202.70
2023-05-06T02:02:58.139Z,201.73
2023-05-06T02:03:58.114Z,199.50
2023-05-06T02:04:58.122Z,198.11
2023-05-06T02:05:58.149Z,199.05
2023-05-06T02:06:58.221Z,194.56
2023-05-06T02:07:58.277Z,197.18
2023-05-06T02:08:58.322Z,199.36
2023-05-06T02:09:58.377Z,199.84
2023-05-06T02:10:58.444Z,201.58
2023-05-06T02:11:58.487Z,200.11
2023-05-06T02:12:58.585Z,199.25
2023-05-06T02:13:58.603Z,203.87
2023-05-06T02:14:58.657Z,202.73
2023-05-06T02:15:58.743Z,199.47
2023-05-06T02:16:58.753Z,202.56
2023-05-06T02:17:58.848Z,202.34
2023-05-06T02:18:58.897Z,204.83
2023-05-06T02:19:58.950Z,204.32
2023-05-06T02:20:58.976Z,208.37
2023-05-06T02:21:59.039Z,209.22
2023-05-06T02:22:59.193Z,210.77
2023-05-06T02:23:59.156Z,213.55
2023-05-06T02:24:59.216Z,213.39
2023-05-06T02:25:59.276Z,211.97
2023-05-06T02:26:59.347Z,213.16
2023-05-06T02:27:59.393Z,212.01
2023-05-06T02:28:59.468Z,213.01
2023-05-06T02:29:59.517Z,210.13
2023-05-06T02:30:59.572Z,211.75
2023-05-06T02:31:59.699Z,214.93
2023-05-06T02:32:59.756Z,212.88
2023-05-06T02:33:59.753Z,213.98
2023-05-06T02:34:59.824Z,212.30
2023-05-06T02:35:59.880Z,213.97
2023-05-06T02:36:59.934Z,212.58
2023-05-06T02:37:59.998Z,213.68
2023-05-06T02:39:00.166Z,212.43
2023-05-06T02:40:00.134Z,212.58
2023-05-06T02:41:00.165Z,212.81
2023-05-06T02:42:00.235Z,215.80
2023-05-06T02:43:00.378Z,211.20
2023-05-06T02:44:00.362Z,212.95
2023-05-06T02:45:00.404Z,211.86
2023-05-06T02:46:00.491Z,209.81
2023-05-06T02:47:00.543Z,209.37
2023-05-06T02:48:00.694Z,209.42
2023-05-06T02:49:00.667Z,211.02
2023-05-06T02:50:00.726Z,211.29
2023-05-06T02:51:00.789Z,212.41
2023-05-06T02:52:00.833Z,211.00
2023-05-06T02:53:00.912Z,212.61
2023-05-06T02:54:00.971Z,214.37
2023-05-06T02:55:01.142Z,215.37
2023-05-06T02:56:01.076Z,214.76
2023-05-06T02:57:01.158Z,219.67
2023-05-06T02:58:01.208Z,220.96
2023-05-06T02:59:01.324Z,219.95
2023-05-06T03:00:01.337Z,220.08
2023-05-06T03:01:01.401Z,217.86
2023-05-06T03:02:01.454Z,218.72
2023-05-06T03:03:01.562Z,215.88
2023-05-06T03:04:01.613Z,218.13
2023-05-06T03:05:01.619Z,218.48
2023-05-06T03:06:01.658Z,217.90
2023-05-06T03:07:01.746Z,217.72
2023-05-06T03:08:01.791Z,218.35
2023-05-06T03:09:01.867Z,219.41
2023-05-06T03:10:01.942Z,218.76
2023-05-06T03:11:02.048Z,217.44
2023-05-06T03:12:02.055Z,220.51
2023-05-06T03:13:02.165Z,221.25
2023-05-06T03:14:02.148Z,220.95
2023-05-06T03:15:02.221Z,218.39
2023-05-06T03:16:02.279Z,220.04
2023-05-06T03:17:02.350Z,220.42
2023-05-06T03:18:02.431Z,222.15
2023-05-06T03:19:02.450Z,221.14
2023-05-06T03:20:02.514Z,220.04
2023-05-06T03:21:02.580Z,219.41
2023-05-06T03:22:02.614Z,221.60
2023-05-06T03:23:02.683Z,220.80
2023-05-06T03:24:02.747Z,222.28
2023-05-06T03:25:02.754Z,222.82
2023-05-06T03:26:02.818Z,223.32
2023-05-06T03:27:02.905Z,223.29
2023-05-06T03:28:02.928Z,223.00
2023-05-06T03:29:02.980Z,219.04
2023-05-06T03:30:03.031Z,217.18
2023-05-06T03:31:03.175Z,217.76
2023-05-06T03:32:03.151Z,220.18
2023-05-06T03:33:03.235Z,218.39
2023-05-06T03:34:03.273Z,218.43
2023-05-06T03:35:03.311Z,218.04
2023-05-06T03:36:03.361Z,218.19
2023-05-06T03:37:03.412Z,220.41
2023-05-06T03:38:03.469Z,221.69
2023-05-06T03:39:03.513Z,221.14
2023-05-06T03:40:03.583Z,222.10
2023-05-06T03:41:03.565Z,220.07
2023-05-06T03:42:03.608Z,219.68
2023-05-06T03:43:03.767Z,222.11
2023-05-06T03:44:03.666Z,225.97
2023-05-06T03:45:03.714Z,226.10
2023-05-06T03:46:03.770Z,225.24
2023-05-06T03:47:03.747Z,225.71
2023-05-06T03:48:03.822Z,226.76
2023-05-06T03:49:03.810Z,226.90
2023-05-06T03:50:03.845Z,226.63
2023-05-06T03:51:03.896Z,226.62
2023-05-06T03:52:03.912Z,227.06
2023-05-06T03:53:04.003Z,226.56
2023-05-06T03:54:03.943Z,226.93
2023-05-06T03:55:03.974Z,224.51
2023-05-06T03:56:04.027Z,227.15
2023-05-06T03:57:04.055Z,226.87
2023-05-06T03:58:04.086Z,226.90
2023-05-06T03:59:04.251Z,228.39
2023-05-06T04:00:04.149Z,228.56
2023-05-06T04:01:04.155Z,227.62
2023-05-06T04:02:04.264Z,227.87
2023-05-06T04:03:04.280Z,231.80
2023-05-06T04:04:04.296Z,230.60
2023-05-06T04:05:04.294Z,231.80
2023-05-06T04:06:04.319Z,232.69
2023-05-06T04:07:04.339Z,232.13
2023-05-06T04:08:04.360Z,233.46
2023-05-06T04:09:04.400Z,234.79
2023-05-06T04:10:04.396Z,235.83
2023-05-06T04:11:04.427Z,234.11
2023-05-06T04:12:04.468Z,237.48
2023-05-06T04:13:04.549Z,233.74
2023-05-06T04:14:04.502Z,233.29
2023-05-06T04:15:04.588Z,235.73
2023-05-06T04:16:04.604Z,235.47
2023-05-06T04:17:04.610Z,234.45
2023-05-06T04:18:04.661Z,233.06
2023-05-06T04:19:06.355Z,234.90
2023-05-06T04:20:04.661Z,236.41
2023-05-06T04:21:04.680Z,237.01
2023-05-06T04:22:04.698Z,240.37
2023-05-06T04:23:04.723Z,238.69
2023-05-06T04:24:04.761Z,239.42
2023-05-06T04:25:04.781Z,238.34
2023-05-06T04:26:04.801Z,239.88
2023-05-06T04:27:04.859Z,241.24
2023-05-06T04:28:04.906Z,241.19
2023-05-06T04:29:04.948Z,242.10
2023-05-06T04:30:04.983Z,242.08
2023-05-06T04:31:05.140Z,241.18
2023-05-06T04:32:05.115Z,242.28
2023-05-06T04:33:05.100Z,241.78
2023-05-06T04:34:05.112Z,240.92
2023-05-06T04:35:05.139Z,241.11
2023-05-06T04:36:05.152Z,239.10
2023-05-06T04:37:05.165Z,241.59
2023-05-06T04:38:05.182Z,241.90
2023-05-06T04:39:05.197Z,240.19
2023-05-06T04:40:05.242Z,240.05
2023-05-06T04:41:05.266Z,240.81
2023-05-06T04:42:05.298Z,240.12
2023-05-06T04:43:05.287Z,237.34
2023-05-06T04:44:05.317Z,237.69
2023-05-06T04:45:05.418Z,238.06
2023-05-06T04:46:05.477Z,237.73
2023-05-06T04:47:05.508Z,238.85
2023-05-06T04:48:05.583Z,238.03
2023-05-06T04:49:05.537Z,237.50
2023-05-06T04:50:05.602Z,238.02
2023-05-06T04:51:05.625Z,238.53
2023-05-06T04:52:05.637Z,238.65
2023-05-06T04:53:05.677Z,236.39
2023-05-06T04:54:05.729Z,236.12
2023-05-06T04:55:05.749Z,235.63
2023-05-06T04:56:05.796Z,238.30
2023-05-06T04:57:05.860Z,237.73
2023-05-06T04:58:05.879Z,237.23
2023-05-06T04:59:05.924Z,235.78
2023-05-06T05:00:05.924Z,232.68
2023-05-06T05:01:06.003Z,234.67
2023-05-06T05:02:06.006Z,233.48
2023-05-06T05:03:06.209Z,232.69
2023-05-06T05:04:06.052Z,230.99
2023-05-06T05:05:06.120Z,230.29
2023-05-06T05:06:06.073Z,229.90
2023-05-06T05:07:06.101Z,225.09
2023-05-06T05:08:06.104Z,226.87
2023-05-06T05:09:06.116Z,225.70
2023-05-06T05:10:06.149Z,228.02
2023-05-06T05:11:06.175Z,228.31
2023-05-06T05:12:06.177Z,225.04
2023-05-06T05:13:06.236Z,224.07
2023-05-06T05:14:06.227Z,223.35
2023-05-06T05:15:06.242Z,222.99
2023-05-06T05:16:06.227Z,219.12
2023-05-06T05:17:06.322Z,221.26
2023-05-06T05:18:06.376Z,223.55
2023-05-06T05:19:08.938Z,220.13
2023-05-06T05:20:06.324Z,220.35
2023-05-06T05:21:06.303Z,218.85
2023-05-06T05:22:06.327Z,217.00
2023-05-06T05:23:06.325Z,217.10
2023-05-06T05:24:06.307Z,215.40
2023-05-06T05:25:07.600Z,213.37
2023-05-06T05:26:06.288Z,212.45
2023-05-06T05:27:06.281Z,213.54
2023-05-06T05:28:06.296Z,208.55
2023-05-06T05:29:06.254Z,210.46
2023-05-06T05:30:06.252Z,209.84
2023-05-06T05:31:07.316Z,210.66
2023-05-06T05:32:06.264Z,215.44
2023-05-06T05:33:06.364Z,220.00
2023-05-06T05:34:06.232Z,227.05
2023-05-06T05:35:06.332Z,230.94
2023-05-06T05:36:06.214Z,236.14
2023-05-06T05:37:06.230Z,236.28
2023-05-06T05:38:06.254Z,239.38
2023-05-06T05:39:06.184Z,242.20
2023-05-06T05:40:06.191Z,244.69
2023-05-06T05:41:06.174Z,244.52
2023-05-06T05:42:06.197Z,247.59
2023-05-06T05:43:06.185Z,247.71
2023-05-06T05:44:06.217Z,247.71
2023-05-06T05:45:06.359Z,248.36
2023-05-06T05:46:06.240Z,249.12
2023-05-06T05:47:06.152Z,249.46
2023-05-06T05:48:06.250Z,248.51
2023-05-06T05:49:06.193Z,249.17
2023-05-06T05:50:06.140Z,248.69
2023-05-06T05:51:06.156Z,246.73
2023-05-06T05:52:06.113Z,247.24
2023-05-06T05:53:06.107Z,246.13
2023-05-06T05:54:06.098Z,244.85
2023-05-06T05:55:06.106Z,242.64
2023-05-06T05:56:06.088Z,240.98
2023-05-06T05:57:06.084Z,241.22
2023-05-06T05:58:06.074Z,241.56
2023-05-06T05:59:06.081Z,240.79
2023-05-06T06:00:06.048Z,242.29
2023-05-06T06:01:06.053Z,242.20
2023-05-06T06:02:06.060Z,243.09
2023-05-06T06:03:06.087Z,242.74
2023-05-06T06:04:06.171Z,243.04
2023-05-06T06:05:06.029Z,242.87
2023-05-06T06:06:06.003Z,243.45
2023-05-06T06:07:06.024Z,244.12
2023-05-06T06:08:06.017Z,244.25
2023-05-06T06:09:06.001Z,247.87
2023-05-06T06:10:06.010Z,248.34
2023-05-06T06:11:05.990Z,246.34
2023-05-06T06:12:05.968Z,246.76
2023-05-06T06:13:06.082Z,246.58
2023-05-06T06:14:05.968Z,246.27
2023-05-06T06:15:05.964Z,246.51
2023-05-06T06:16:05.979Z,245.36
2023-05-06T06:17:05.947Z,242.74
2023-05-06T06:18:05.980Z,241.66
2023-05-06T06:19:05.934Z,241.33
2023-05-06T06:20:05.945Z,242.20
2023-05-06T06:21:06.017Z,241.74
2023-05-06T06:22:06.046Z,240.26
2023-05-06T06:23:06.088Z,241.82
2023-05-06T06:24:06.137Z,239.71
2023-05-06T06:25:06.233Z,239.02
2023-05-06T06:26:06.227Z,237.19
2023-05-06T06:27:06.272Z,237.65
2023-05-06T06:28:06.332Z,238.00
2023-05-06T06:29:06.379Z,235.88
2023-05-06T06:30:06.418Z,236.72
2023-05-06T06:31:06.472Z,234.98
2023-05-06T06:32:06.601Z,236.91
2023-05-06T06:33:06.693Z,237.23
2023-05-06T06:34:06.645Z,236.73
2023-05-06T06:35:06.705Z,238.43
2023-05-06T06:36:06.746Z,236.68
2023-05-06T06:37:07.953Z,236.15
2023-05-06T06:38:06.879Z,233.83
2023-05-06T06:39:07.013Z,234.11
2023-05-06T06:40:06.993Z,234.18
2023-05-06T06:41:07.045Z,238.95
2023-05-06T06:42:07.092Z,237.31
2023-05-06T06:43:07.140Z,240.60
2023-05-06T06:44:07.211Z,241.58
2023-05-06T06:45:07.314Z,240.01
2023-05-06T06:46:07.355Z,240.41
2023-05-06T06:47:07.378Z,240.95
2023-05-06T06:48:07.539Z,240.13
2023-05-06T06:49:07.484Z,239.45
2023-05-06T06:50:07.559Z,239.98
2023-05-06T06:51:07.641Z,239.17
2023-05-06T06:52:07.677Z,240.67
2023-05-06T06:53:07.758Z,241.52
2023-05-06T06:54:07.812Z,239.98
2023-05-06T06:55:08.108Z,239.27
2023-05-06T06:56:07.931Z,239.04
2023-05-06T06:57:07.997Z,237.00
2023-05-06T06:58:08.032Z,235.73
2023-05-06T06:59:08.115Z,232.07
2023-05-06T07:00:08.178Z,232.08
2023-05-06T07:01:08.234Z,230.24
2023-05-06T07:02:08.263Z,231.95
2023-05-06T07:03:08.376Z,231.33
2023-05-06T07:04:08.382Z,235.28
2023-05-06T07:05:08.571Z,236.72
2023-05-06T07:06:08.445Z,237.79
2023-05-06T07:07:08.513Z,241.61
2023-05-06T07:08:08.544Z,246.32
2023-05-06T07:09:08.620Z,246.23
2023-05-06T07:10:08.625Z,243.81
2023-05-06T07:11:08.676Z,243.19
2023-05-06T07:12:08.717Z,239.05
2023-05-06T07:13:08.824Z,236.74
2023-05-06T07:14:08.807Z,232.77
2023-05-06T07:15:09.172Z,230.51
2023-05-06T07:16:08.861Z,228.50
2023-05-06T07:17:08.970Z,227.83
2023-05-06T07:18:08.954Z,233.75
2023-05-06T07:19:08.958Z,237.13
2023-05-06T07:20:08.995Z,248.55
2023-05-06T07:21:09.038Z,249.96
2023-05-06T07:22:09.037Z,250.00
2023-05-06T07:23:09.061Z,249.94
2023-05-06T07:24:09.081Z,247.27
2023-05-06T07:25:09.427Z,246.30
2023-05-06T07:26:09.103Z,245.96
2023-05-06T07:27:09.185Z,244.47
2023-05-06T07:28:09.151Z,245.47
2023-05-06T07:29:09.161Z,243.45
2023-05-06T07:30:09.181Z,244.37
2023-05-06T07:31:09.209Z,244.40
2023-05-06T07:32:09.175Z,244.91
2023-05-06T07:33:09.189Z,247.18
2023-05-06T07:34:09.195Z,248.56
2023-05-06T07:35:09.473Z,248.69
2023-05-06T07:36:09.200Z,248.75
2023-05-06T07:37:09.200Z,248.81
2023-05-06T07:38:09.223Z,247.09
2023-05-06T07:39:09.210Z,247.21
2023-05-06T07:40:09.217Z,246.72
2023-05-06T07:41:09.197Z,246.88
2023-05-06T07:42:09.209Z,246.25
2023-05-06T07:43:09.269Z,247.39
2023-05-06T07:44:09.205Z,246.23
2023-05-06T07:45:09.395Z,247.96
2023-05-06T07:46:09.215Z,246.14
2023-05-06T07:47:09.427Z,244.35
2023-05-06T07:48:09.235Z,245.78
2023-05-06T07:49:09.222Z,245.51
2023-05-06T07:50:09.241Z,244.58
2023-05-06T07:51:09.214Z,244.55
2023-05-06T07:52:09.236Z,245.88
2023-05-06T07:53:09.221Z,244.99
2023-05-06T07:54:09.217Z,246.18
2023-05-06T07:55:09.577Z,243.34
2023-05-06T07:56:09.235Z,242.19
2023-05-06T07:57:09.235Z,244.16
2023-05-06T07:58:09.229Z,245.18
2023-05-06T07:59:09.291Z,240.73
2023-05-06T08:00:09.245Z,238.34
2023-05-06T08:01:09.233Z,241.00
2023-05-06T08:02:09.262Z,239.79
2023-05-06T08:03:09.341Z,238.94
2023-05-06T08:04:09.295Z,239.75
2023-05-06T08:05:09.507Z,239.75
2023-05-06T08:06:09.221Z,240.52
2023-05-06T08:07:09.233Z,238.22
2023-05-06T08:08:09.215Z,237.06
2023-05-06T08:09:10.152Z,238.64
2023-05-06T08:10:09.245Z,238.65
2023-05-06T08:11:09.239Z,236.72
2023-05-06T08:12:09.230Z,237.52
2023-05-06T08:13:09.238Z,239.13
2023-05-06T08:14:09.219Z,239.25
2023-05-06T08:15:09.580Z,240.94
2023-05-06T08:16:09.313Z,241.33
2023-05-06T08:17:09.224Z,240.65
2023-05-06T08:18:21.068Z,242.93
2023-05-06T08:19:10.236Z,243.03
2023-05-06T08:20:09.236Z,243.22
2023-05-06T08:21:09.217Z,242.94
2023-05-06T08:22:09.203Z,241.72
2023-05-06T08:23:09.195Z,241.90
2023-05-06T08:24:09.204Z,242.39
2023-05-06T08:25:09.614Z,243.08
2023-05-06T08:26:09.185Z,239.84
2023-05-06T08:27:09.181Z,240.67
2023-05-06T08:28:09.174Z,239.87
2023-05-06T08:29:09.155Z,242.05
2023-05-06T08:30:09.160Z,241.93
2023-05-06T08:31:09.207Z,243.50
2023-05-06T08:32:09.172Z,241.86
2023-05-06T08:33:09.199Z,243.56
2023-05-06T08:34:09.115Z,242.47
2023-05-06T08:35:09.467Z,238.92
2023-05-06T08:36:09.103Z,239.12
2023-05-06T08:37:09.099Z,241.10
2023-05-06T08:38:09.128Z,239.53
2023-05-06T08:39:09.089Z,242.55
2023-05-06T08:40:09.091Z,242.67
2023-05-06T08:41:09.070Z,241.02
2023-05-06T08:42:09.067Z,239.41
2023-05-06T08:43:09.071Z,239.87
2023-05-06T08:44:09.060Z,241.87
2023-05-06T08:45:09.240Z,241.03
2023-05-06T08:46:09.079Z,241.44
2023-05-06T08:47:09.058Z,243.07
2023-05-06T08:48:09.058Z,240.54
2023-05-06T08:49:09.034Z,241.84
2023-05-06T08:50:09.040Z,241.85
2023-05-06T08:51:09.012Z,240.61
2023-05-06T08:52:09.004Z,241.45
2023-05-06T08:53:08.994Z,241.72
2023-05-06T08:54:08.987Z,243.12
2023-05-06T08:55:09.172Z,244.54
2023-05-06T08:56:08.986Z,243.66
2023-05-06T08:57:10.992Z,244.44
2023-05-06T08:58:08.957Z,245.19
2023-05-06T08:59:08.975Z,245.46
2023-05-06T09:00:08.944Z,243.97
2023-05-06T09:01:08.989Z,244.53
2023-05-06T09:02:08.972Z,246.01
2023-05-06T09:03:09.196Z,245.70
2023-05-06T09:04:08.959Z,246.92
2023-05-06T09:05:09.144Z,245.28
2023-05-06T09:06:08.918Z,244.14
2023-05-06T09:07:08.916Z,247.37
2023-05-06T09:08:08.921Z,244.82
2023-05-06T09:09:08.903Z,245.25
2023-05-06T09:10:09.210Z,245.67
2023-05-06T09:11:08.889Z,244.71
2023-05-06T09:12:08.868Z,244.04
2023-05-06T09:13:08.925Z,247.58
2023-05-06T09:14:08.852Z,246.35
2023-05-06T09:15:09.205Z,244.26
2023-05-06T09:16:08.853Z,248.61
2023-05-06T09:17:08.985Z,249.68
2023-05-06T09:18:08.880Z,249.69
2023-05-06T09:19:08.945Z,246.67
2023-05-06T09:20:08.829Z,248.00
2023-05-06T09:21:08.820Z,246.54
2023-05-06T09:22:08.808Z,250.00
2023-05-06T09:23:08.795Z,247.76
2023-05-06T09:24:08.789Z,247.35
2023-05-06T09:25:08.940Z,247.33
2023-05-06T09:26:08.816Z,244.93
2023-05-06T09:27:10.646Z,244.97
2023-05-06T09:28:08.791Z,245.16
2023-05-06T09:29:08.756Z,245.69
2023-05-06T09:30:08.770Z,245.93
2023-05-06T09:31:08.805Z,247.23
2023-05-06T09:32:08.755Z,247.93
2023-05-06T09:33:08.859Z,246.81
2023-05-06T09:34:08.746Z,244.09
2023-05-06T09:35:08.930Z,247.18
2023-05-06T09:36:08.742Z,250.00
2023-05-06T09:37:08.738Z,247.00
2023-05-06T09:38:08.762Z,248.03
2023-05-06T09:39:08.752Z,247.54
2023-05-06T09:40:08.771Z,245.15
2023-05-06T09:41:08.792Z,245.22
2023-05-06T09:42:08.798Z,245.93
2023-05-06T09:43:08.781Z,245.87
2023-05-06T09:44:08.802Z,242.08
2023-05-06T09:45:08.925Z,240.23
2023-05-06T09:46:08.921Z,238.38
2023-05-06T09:47:08.814Z,237.88
2023-05-06T09:48:08.852Z,237.28
2023-05-06T09:49:08.816Z,235.14
2023-05-06T09:50:08.826Z,236.12
2023-05-06T09:51:08.942Z,235.17
2023-05-06T09:52:08.804Z,235.92
2023-05-06T09:53:08.818Z,235.86
2023-05-06T09:54:08.810Z,235.62
2023-05-06T09:55:08.981Z,234.26
2023-05-06T09:56:08.816Z,234.46
2023-05-06T09:57:08.828Z,238.21
2023-05-06T09:58:08.809Z,238.06
2023-05-06T09:59:08.825Z,236.00
2023-05-06T10:00:08.830Z,236.07
2023-05-06T10:01:08.907Z,234.62
2023-05-06T10:02:08.871Z,236.36
2023-05-06T10:03:08.947Z,238.51
2023-05-06T10:04:09.210Z,239.05
2023-05-06T10:05:09.153Z,240.16
2023-05-06T10:06:08.853Z,240.66
2023-05-06T10:07:08.912Z,239.50
2023-05-06T10:08:08.838Z,240.23
2023-05-06T10:09:08.864Z,244.08
2023-05-06T10:10:08.860Z,243.75
2023-05-06T10:11:08.864Z,242.78
2023-05-06T10:12:08.869Z,243.55
2023-05-06T10:13:08.898Z,241.51
2023-05-06T10:14:08.862Z,241.67
2023-05-06T10:15:09.225Z,241.76
2023-05-06T10:16:08.926Z,243.62
2023-05-06T10:17:08.852Z,242.72
2023-05-06T10:18:08.868Z,241.91
2023-05-06T10:19:08.855Z,241.83
2023-05-06T10:20:08.844Z,243.93
2023-05-06T10:21:08.841Z,243.28
2023-05-06T10:22:08.830Z,246.12
2023-05-06T10:23:08.896Z,246.12
2023-05-06T10:24:08.842Z,247.41
2023-05-06T10:25:09.067Z,247.73
2023-05-06T10:26:08.876Z,248.98
2023-05-06T10:27:08.850Z,250.00
2023-05-06T10:28:09.200Z,250.00
2023-05-06T10:29:09.873Z,250.09
2023-05-06T10:30:08.865Z,249.25
2023-05-06T10:31:08.878Z,248.92
2023-05-06T10:32:08.847Z,250.02
2023-05-06T10:33:08.862Z,251.19
2023-05-06T10:34:08.832Z,249.88
2023-05-06T10:35:08.953Z,248.24
2023-05-06T10:36:08.836Z,246.46
2023-05-06T10:37:08.807Z,246.78
2023-05-06T10:38:08.819Z,245.35
2023-05-06T10:39:08.858Z,247.36
2023-05-06T10:40:08.790Z,244.15
2023-05-06T10:41:08.775Z,246.65
2023-05-06T10:42:08.786Z,248.46
2023-05-06T10:43:08.787Z,247.12
2023-05-06T10:44:08.819Z,247.41
2023-05-06T10:45:08.900Z,245.41
2023-05-06T10:46:09.046Z,243.00
2023-05-06T10:47:08.845Z,243.15
2023-05-06T10:48:08.939Z,244.91
2023-05-06T10:49:08.927Z,246.85
2023-05-06T10:50:08.965Z,244.83
2023-05-06T10:51:08.973Z,246.57
2023-05-06T10:52:09.017Z,248.03
2023-05-06T10:53:09.036Z,245.47
2023-05-06T10:54:09.076Z,245.92
2023-05-06T10:55:09.480Z,245.72
2023-05-06T10:56:09.149Z,246.27
2023-05-06T10:57:09.176Z,244.08
2023-05-06T10:58:09.218Z,245.63
2023-05-06T10:59:09.222Z,244.11
2023-05-06T11:00:09.235Z,244.26
2023-05-06T11:01:09.238Z,244.65
2023-05-06T11:02:09.297Z,244.09
2023-05-06T11:03:09.330Z,245.11
2023-05-06T11:04:09.330Z,244.83
2023-05-06T11:05:09.591Z,244.17
2023-05-06T11:06:09.376Z,241.95
2023-05-06T11:07:09.413Z,239.28
2023-05-06T11:08:09.430Z,238.05
2023-05-06T11:09:09.458Z,239.49
2023-05-06T11:10:09.459Z,239.73
2023-05-06T11:11:09.534Z,237.04
2023-05-06T11:12:09.463Z,236.19
2023-05-06T11:13:09.600Z,234.25
2023-05-06T11:14:09.495Z,235.98
2023-05-06T11:15:09.768Z,236.76
2023-05-06T11:16:09.630Z,234.54
2023-05-06T11:17:09.808Z,235.69
2023-05-06T11:18:09.621Z,233.88
2023-05-06T11:19:09.635Z,233.85
2023-05-06T11:20:09.808Z,230.45
2023-05-06T11:21:09.662Z,231.36
2023-05-06T11:22:09.691Z,233.99
2023-05-06T11:23:09.731Z,233.36
2023-05-06T11:24:09.766Z,232.74
2023-05-06T11:25:09.816Z,230.28
2023-05-06T11:26:09.853Z,228.83
2023-05-06T11:27:09.961Z,228.00
2023-05-06T11:28:09.945Z,229.62
2023-05-06T11:29:09.970Z,232.21
2023-05-06T11:30:10.174Z,229.77
2023-05-06T11:31:10.051Z,227.79
2023-05-06T11:32:10.082Z,230.38
2023-05-06T11:33:10.213Z,229.40
2023-05-06T11:34:10.197Z,231.31
2023-05-06T11:35:10.195Z,229.91
2023-05-06T11:36:10.243Z,230.76
2023-05-06T11:37:10.287Z,226.18
2023-05-06T11:38:10.390Z,223.71
2023-05-06T11:39:10.359Z,222.78
2023-05-06T11:40:10.610Z,224.46
2023-05-06T11:41:10.490Z,226.48
2023-05-06T11:42:10.594Z,228.14
2023-05-06T11:43:10.654Z,227.01
2023-05-06T11:44:11.622Z,226.52
2023-05-06T11:45:10.728Z,223.63
2023-05-06T11:46:10.802Z,223.33
2023-05-06T11:47:10.838Z,224.35
2023-05-06T11:48:10.909Z,223.78
2023-05-06T11:49:10.960Z,223.29
2023-05-06T11:50:11.426Z,222.05
2023-05-06T11:51:11.112Z,222.75
2023-05-06T11:52:11.181Z,225.19
2023-05-06T11:53:11.232Z,223.67
2023-05-06T11:54:11.292Z,222.66
2023-05-06T11:55:11.341Z,219.39
2023-05-06T11:56:11.406Z,222.95
2023-05-06T11:57:11.465Z,221.87
2023-05-06T11:58:11.499Z,221.52
2023-05-06T11:59:11.569Z,220.63
2023-05-06T12:00:11.814Z,221.94
2023-05-06T12:01:11.690Z,221.31
2023-05-06T12:02:11.751Z,218.14
2023-05-06T12:03:11.872Z,218.31
2023-05-06T12:04:12.035Z,225.61
2023-05-06T12:05:11.937Z,222.75
2023-05-06T12:06:11.992Z,222.75
2023-05-06T12:07:12.060Z,222.08
2023-05-06T12:08:23.511Z,220.06
2023-05-06T12:09:13.145Z,220.19
2023-05-06T12:10:12.431Z,220.14
2023-05-06T12:11:12.122Z,220.65
2023-05-06T12:12:12.108Z,217.73
2023-05-06T12:13:12.166Z,217.35
2023-05-06T12:14:12.105Z,218.62
2023-05-06T12:15:12.144Z,218.19
2023-05-06T12:16:12.139Z,219.74
2023-05-06T12:17:12.078Z,219.55
2023-05-06T12:18:12.069Z,218.19
2023-05-06T12:19:12.126Z,219.40
2023-05-06T12:20:12.321Z,220.12
2023-05-06T12:21:12.263Z,220.36
2023-05-06T12:22:12.355Z,222.31
2023-05-06T12:23:12.393Z,223.57
2023-05-06T12:24:12.474Z,224.45
2023-05-06T12:25:12.564Z,219.59
2023-05-06T12:26:12.561Z,220.22
2023-05-06T12:27:12.639Z,219.51
2023-05-06T12:28:12.678Z,219.69
2023-05-06T12:29:12.748Z,218.63